Latest Coastal Weather Observations for Marion Reef

IDQ60701

Issued at 3:31 am EST Monday 20 April 2015 (issued every 10 minutes, with the page automatically refreshed every 10 minutes)

About coastal observations | Map of coastal stations | Coastal observations for QLD | Marine services | Other Formats
Station Details ID: 200704 Name: MARION REEF Lat: -19.10 Lon: 152.39 Height: 2.0 m
Data from the previous 72 hours. | See also: Recent months for locations in Queensland
Date/Time
EST
Temp

°C
Wind Pressure Rain
since 9am
mm
Weather Cloud Vis
km
Sea
Height
m
Swell
Dir
 
Speed
knots
Gust
knots
hPa Trend Height
m
Period
s
Dir
20/03:30am 26.6 ESE 14 16 1013.1 - - - - - - - - -
20/03:00am 26.6 E 15 17 1012.9 - - - - - - - - -
20/02:30am 26.5 ESE 14 16 1013.5 - - - - - - - - -
20/02:00am 26.8 ESE 14 16 1013.9 - - - - - - - - -
20/01:30am 26.6 E 14 16 1014.1 - - - - - - - - -
20/01:00am 26.5 E 16 17 1014.2 - - - - - - - - -
20/12:30am 26.7 E 16 18 1014.6 - - - - - - - - -
20/12:00am 26.6 E 15 18 1015.1 - - - - - - - - -
 
Date/Time
EST
Temp

°C
Wind Pressure Rain
since 9am
mm
Weather Cloud Vis
km
Sea
Height
m
Swell
Dir
 
Speed
knots
Gust
knots
hPa Trend Height
m
Period
s
Dir
19/11:30pm 26.7 ESE 16 18 1015.4 - - - - - - - - -
19/11:00pm 26.7 ESE 16 19 1015.4 - - - - - - - - -
19/10:30pm 26.8 ESE 15 17 1015.8 - - - - - - - - -
19/10:00pm 26.6 ESE 15 18 1015.7 - - - - - - - - -
19/09:30pm 26.9 ESE 17 19 1015.6 - - - - - - - - -
19/09:00pm 26.8 E 16 18 1015.6 - - - - - - - - -
19/08:30pm 26.5 E 16 19 1015.6 - - - - - - - - -
19/08:00pm 26.6 ESE 16 19 1015.3 - - - - - - - - -
19/07:30pm 26.6 ESE 17 19 1015.1 - - - - - - - - -
19/07:00pm 26.7 ESE 17 19 1014.7 - - - - - - - - -
19/06:30pm 26.6 ESE 17 19 1014.4 - - - - - - - - -
19/06:00pm 26.7 ESE 17 20 1014.0 - - - - - - - - -
19/05:30pm 26.5 SE 16 19 1013.9 - - - - - - - - -
19/05:00pm 26.4 ESE 18 19 1013.5 - - - - - - - - -
19/04:30pm 26.7 SE 17 19 1013.4 - - - - - - - - -
19/04:00pm 26.6 SE 17 19 1013.0 - - - - - - - - -
19/03:30pm 26.5 ESE 16 19 1013.0 - - - - - - - - -
19/03:00pm 26.8 ESE 16 19 1013.0 - - - - - - - - -
19/02:30pm 27.0 ESE 15 17 1013.4 - - - - - - - - -
19/02:00pm 26.9 ESE 16 18 1013.3 - - - - - - - - -
19/01:30pm 26.7 SE 16 18 1013.4 - - - - - - - - -
19/01:00pm 27.1 SE 15 16 1013.3 - - - - - - - - -
19/12:30pm 27.2 ESE 14 16 1013.8 - - - - - - - - -
19/12:00pm 27.1 ESE 13 15 1014.2 - - - - - - - - -
19/11:30am 27.0 ESE 14 16 1014.8 - - - - - - - - -
19/11:00am 26.9 ESE 14 17 1015.3 - - - - - - - - -
19/10:30am 26.8 E 15 17 1015.7 - - - - - - - - -
19/10:00am 27.0 E 15 17 1015.8 - - - - - - - - -
19/09:30am 27.0 E 16 18 1016.0 - - - - - - - - -
19/09:00am 26.9 E 15 17 1016.0 - - - - - - - - -
19/08:30am 27.0 E 16 17 1016.2 - - - - - - - - -
19/08:00am 26.9 E 16 19 1015.8 - - - - - - - - -
19/07:30am 26.8 E 17 19 1015.5 - - - - - - - - -
19/07:00am 26.5 ESE 15 17 1015.0 - - - - - - - - -
19/06:30am 26.2 ESE 17 19 1014.6 - - - - - - - - -
19/06:00am 26.5 E 15 17 1014.4 - - - - - - - - -
19/05:30am 26.5 E 18 20 1014.2 - - - - - - - - -
19/05:00am 26.7 E 16 18 1014.0 - - - - - - - - -
19/04:30am 26.6 E 15 18 1013.8 - - - - - - - - -
19/04:00am 26.2 E 16 19 1013.6 - - - - - - - - -
19/03:30am 26.1 E 17 21 1013.8 - - - - - - - - -
19/03:00am 25.6 ESE 17 19 1013.9 - - - - - - - - -
19/02:30am 25.8 SE 19 22 1014.2 - - - - - - - - -
19/02:00am 26.5 ESE 17 20 1014.2 - - - - - - - - -
19/01:30am 26.1 E 16 19 1014.5 - - - - - - - - -
19/01:00am 26.1 E 21 24 1014.7 - - - - - - - - -
19/12:30am 26.4 ESE 19 22 1015.1 - - - - - - - - -
19/12:00am 26.4 ESE 20 23 1015.2 - - - - - - - - -
 
Date/Time
EST
Temp

°C
Wind Pressure Rain
since 9am
mm
Weather Cloud Vis
km
Sea
Height
m
Swell
Dir
 
Speed
knots
Gust
knots
hPa Trend Height
m
Period
s
Dir
18/11:30pm 26.8 ESE 19 23 1015.7 - - - - - - - - -
18/11:00pm 26.5 ESE 20 24 1015.8 - - - - - - - - -
18/10:30pm 26.7 ESE 21 24 1015.8 - - - - - - - - -
18/10:00pm 26.8 ESE 19 22 1015.7 - - - - - - - - -
18/09:30pm 26.8 ESE 20 23 1015.9 - - - - - - - - -
18/09:00pm 26.7 ESE 20 23 1015.8 - - - - - - - - -
18/08:30pm 26.8 ESE 20 23 1015.9 - - - - - - - - -
18/08:00pm 26.7 ESE 19 22 1015.6 - - - - - - - - -
18/07:30pm 26.7 ESE 19 23 1015.3 - - - - - - - - -
18/07:00pm 26.6 ESE 19 22 1015.0 - - - - - - - - -
18/06:30pm 26.5 ESE 19 22 1014.8 - - - - - - - - -
18/06:00pm 26.6 ESE 17 21 1014.5 - - - - - - - - -
18/05:30pm 26.6 ESE 19 21 1014.3 - - - - - - - - -
18/05:00pm 26.5 ESE 19 21 1014.0 - - - - - - - - -
18/04:30pm 26.7 ESE 18 20 1013.9 - - - - - - - - -
18/04:00pm 26.6 ESE 18 21 1013.8 - - - - - - - - -
18/03:30pm 27.0 ESE 18 21 1013.8 - - - - - - - - -
18/03:00pm 26.8 ESE 18 - 1013.7 - - - - - - - - -
18/02:30pm 27.0 ESE 19 22 1013.8 - - - - - - - - -
18/02:00pm 27.1 ESE 18 21 1013.8 - - - - - - - - -
18/01:30pm 26.8 ESE 17 20 1014.1 - - - - - - - - -
18/01:00pm 26.9 ESE 18 20 1014.2 - - - - - - - - -
18/12:30pm 27.0 ESE 19 21 1014.5 - - - - - - - - -
18/12:00pm 26.7 ESE 18 21 1014.7 - - - - - - - - -
18/11:30am 27.0 E 20 23 1015.2 - - - - - - - - -
18/11:00am 27.0 E 20 23 1015.5 - - - - - - - - -
18/10:30am 26.9 E 19 22 1016.1 - - - - - - - - -
18/10:00am 26.8 E 19 26 1016.3 - - - - - - - - -
18/09:57am 26.3 E 21 27 1016.5 - - - - - - - - -
18/09:30am 26.9 ESE 21 24 1016.6 - - - - - - - - -
18/09:00am 26.5 ESE 21 26 1016.5 - - - - - - - - -
18/08:30am 26.7 ESE 19 23 1016.4 - - - - - - - - -
18/08:00am 26.9 ESE 20 25 1016.2 - - - - - - - - -
18/07:30am 26.7 E 20 23 1016.0 - - - - - - - - -
18/07:00am 26.5 ESE 19 22 1015.6 - - - - - - - - -
18/06:30am 26.5 ESE 19 23 1015.2 - - - - - - - - -
18/06:00am 26.5 ESE 21 24 1014.6 - - - - - - - - -
18/05:30am 26.5 ESE 21 26 1014.4 - - - - - - - - -
18/05:00am 26.5 ESE 22 25 1014.1 - - - - - - - - -
18/04:30am 26.6 ESE 20 24 1013.9 - - - - - - - - -
18/04:00am 26.4 ESE 20 22 1013.7 - - - - - - - - -
18/03:30am 26.5 ESE 20 23 1013.7 - - - - - - - - -
18/03:00am 26.4 ESE 22 25 1013.8 - - - - - - - - -
18/02:30am 26.7 ESE 20 24 1014.1 - - - - - - - - -
18/02:00am 26.5 ESE 20 24 1014.2 - - - - - - - - -
18/01:30am 26.3 ESE 21 26 1014.4 - - - - - - - - -
18/01:00am 26.6 ESE 21 25 1014.6 - - - - - - - - -
18/12:30am 26.4 ESE 21 26 1015.1 - - - - - - - - -
18/12:00am 26.6 ESE 23 26 1015.1 - - - - - - - - -
 
Date/Time
EST
Temp

°C
Wind Pressure Rain
since 9am
mm
Weather Cloud Vis
km
Sea
Height
m
Swell
Dir
 
Speed
knots
Gust
knots
hPa Trend Height
m
Period
s
Dir
17/11:30pm 26.4 E 20 25 1015.4 - - - - - - - - -
17/11:00pm 26.4 ESE 22 26 1015.3 - - - - - - - - -
17/10:30pm 26.5 ESE 23 28 1015.5 - - - - - - - - -
17/10:00pm 26.5 ESE 22 26 1015.6 - - - - - - - - -
17/09:30pm 26.4 ESE 22 25 1015.8 - - - - - - - - -
17/09:00pm 26.9 E 21 25 1015.8 - - - - - - - - -
17/08:30pm 26.7 ESE 22 25 1015.8 - - - - - - - - -
17/08:00pm 26.5 ESE 23 26 1015.4 - - - - - - - - -
17/07:30pm 26.4 ESE 23 26 1015.3 - - - - - - - - -
17/07:00pm 26.7 ESE 21 26 1014.8 - - - - - - - - -
17/06:30pm 26.7 ESE 23 27 1014.6 - - - - - - - - -
17/06:00pm 26.7 ESE 24 28 1014.2 - - - - - - - - -
17/05:30pm 26.7 ESE 22 27 1014.0 - - - - - - - - -
17/05:00pm 26.6 ESE 22 26 1013.8 - - - - - - - - -
17/04:30pm 26.7 ESE 24 27 1013.7 - - - - - - - - -
17/04:00pm 26.7 ESE 24 28 1013.3 - - - - - - - - -
17/03:30pm 26.8 ESE 24 27 1013.3 - - - - - - - - -
17/03:00pm 26.6 ESE 23 27 1013.2 - - - - - - - - -
17/02:30pm 26.7 ESE 25 28 1013.4 - - - - - - - - -
17/02:00pm 26.7 ESE 25 29 1013.6 - - - - - - - - -
17/01:30pm 26.7 ESE 24 28 1014.0 - - - - - - - - -
17/01:00pm 26.9 ESE 23 27 1014.3 - - - - - - - - -
17/12:30pm 26.7 ESE 24 29 1014.7 - - - - - - - - -
17/12:00pm 26.6 ESE 22 26 1015.0 - - - - - - - - -
17/11:30am 26.0 E 22 27 1015.7 - - - - - - - - -
17/11:00am 25.6 ESE 24 32 1016.1 - - - - - - - - -
17/10:30am 26.7 ESE 20 24 1016.5 - - - - - - - - -
17/10:00am 26.2 SE 21 25 1016.8 - - - - - - - - -
17/09:30am 25.6 SE 22 28 1017.3 - - - - - - - - -
17/09:12am 26.0 ESE 22 32 1017.3 - - - - - - - - -
17/09:00am 25.4 ESE 24 27 1017.1 - - - - - - - - -
17/08:30am 26.5 ESE 23 27 1017.0 - - - - - - - - -
17/08:00am 26.4 ESE 23 26 1016.8 - - - - - - - - -
17/07:30am 26.3 ESE 22 25 1016.7 - - - - - - - - -
17/07:00am 26.6 ESE 23 26 1016.4 - - - - - - - - -
17/06:30am 26.4 SE 22 26 1016.2 - - - - - - - - -
17/06:00am 26.2 ESE 21 - 1015.8 - - - - - - - - -
17/05:30am 26.2 SE 21 25 1015.5 - - - - - - - - -
17/05:00am 26.1 SE 22 25 1015.1 - - - - - - - - -
17/04:30am 26.2 ESE 23 26 1015.0 - - - - - - - - -
17/04:00am 26.4 ESE 23 26 1014.7 - - - - - - - - -

Other Formats:

Comma delimited format used in spreadsheet applications
http://www.bom.gov.au/fwo/IDQ60701/IDQ60701.94298.axf

JavaScript Object Notation format (JSON) in row-major order
http://www.bom.gov.au/fwo/IDQ60701/IDQ60701.94298.json